Change the Weather History Date:

Sunday, December 9, 2012

  Actual Average (KRWF) Record (KRWF)
Temperature  
Mean Temperature 19 °F -  
Max Temperature 33 °F 28 °F 63 °F (1939)
Min Temperature 5 °F 11 °F -20 °F (1955)
Degree Days  
Heating Degree Days 46    
Moisture  
Dew Point 24 °F    
Average Humidity 92    
Maximum Humidity 100    
Minimum Humidity 79    
Precipitation  
Precipitation 0.00 in - - ()
Sea Level Pressure  
Sea Level Pressure 29.88 in    
Wind  
Wind Speed 16 mph (NE)    
Max Wind Speed 24 mph    
Max Gust Speed 32 mph    
Visibility 2 miles    
Events Snow    
Averages and records for this station are not official NWS values.
T = Trace of Precipitation, MM = Missing Value Source: NWS Daily Summary

Daily Weather History Graph

Daily Weather History Graph

Search for Another Location

Airport or City:

Trip Planner

Search our weather history database for the weather conditions in past years. The results will help you decide how hot, cold, wet, or windy it might be!

Date:

Astronomy

Dec. 09, 2012 Rise Set
Actual Time 7:46 AM CST 4:39 PM CST
Civil Twilight 7:12 AM CST 5:12 PM CST
Nautical Twilight 6:35 AM CST 5:49 PM CST
Astronomical Twilight 6:00 AM CST 6:25 PM CST
Moon 3:12 AM CST (12/9) 1:53 PM CST (12/9)
Length of Visible Light 9h 59m
Length of Day
8h 53m
Waning Crescent, 18% of the Moon is Illuminated
Dec 9
Waning Crescent
Dec 13
New
Dec 19
First Quarter
Dec 28
Full
Jan 4
Last Quarter

Hourly Weather History & Observations

Time (CST) Temp. Windchill Dew Point Humidity Pressure Visibility Wind Dir Wind Speed Gust Speed Precip Events Conditions
12:10 AM 32.0 °F 21.2 °F 30.2 °F 93% 29.90 in 1.2 mi East 16.1 mph 23.0 mph N/A Snow Light Snow
12:31 AM 32.0 °F 21.2 °F 30.2 °F 93% 29.89 in 1.5 mi ESE 16.1 mph 20.7 mph N/A Snow Light Snow
12:51 AM 32.0 °F 21.2 °F 30.2 °F 93% 29.89 in 4.0 mi East 16.1 mph 21.9 mph N/A Snow Light Snow
1:11 AM 32.0 °F 21.6 °F 30.2 °F 93% 29.88 in 5.0 mi ESE 15.0 mph 23.0 mph N/A Snow Light Snow
1:31 AM 32.0 °F 22.1 °F 30.2 °F 93% 29.88 in 4.0 mi ESE 13.8 mph 19.6 mph N/A Snow Light Snow
1:51 AM 32.0 °F 21.6 °F 30.2 °F 93% 29.88 in 3.0 mi ESE 15.0 mph - N/A Snow Light Snow
2:11 AM 32.0 °F 21.6 °F 30.2 °F 93% 29.87 in 3.0 mi ESE 15.0 mph - N/A Snow Light Snow
2:31 AM 32.0 °F 22.1 °F 30.2 °F 93% 29.88 in 4.0 mi ESE 13.8 mph 18.4 mph N/A Snow Light Snow
2:51 AM 32.0 °F 22.5 °F 30.2 °F 93% 29.87 in 5.0 mi ESE 12.7 mph 20.7 mph N/A Snow Light Snow
3:11 AM 32.0 °F 22.1 °F 30.2 °F 93% 29.86 in 7.0 mi ESE 13.8 mph - N/A Snow Light Snow
3:31 AM 32.0 °F 22.5 °F 30.2 °F 93% 29.86 in 5.0 mi ESE 12.7 mph 18.4 mph N/A Snow Light Snow
3:50 AM 33.8 °F 24.3 °F 32.0 °F 93% 29.86 in 4.0 mi ESE 13.8 mph - N/A Snow Light Snow
4:11 AM 32.0 °F 23.0 °F 30.2 °F 93% 29.85 in 1.8 mi ESE 11.5 mph - N/A Snow Light Snow
4:30 AM 32.0 °F 23.0 °F 30.2 °F 93% 29.84 in 1.5 mi ESE 11.5 mph 17.3 mph N/A Snow Light Snow
4:51 AM 32.0 °F 23.0 °F 30.2 °F 93% 29.84 in 1.2 mi ESE 11.5 mph 17.3 mph N/A Snow Light Snow
5:11 AM 32.0 °F 23.6 °F 32.0 °F 100% 29.84 in 1.0 mi ESE 10.4 mph - N/A Snow Snow
5:31 AM 32.0 °F 23.0 °F 32.0 °F 100% 29.83 in 1.0 mi ESE 11.5 mph - N/A Snow Snow
5:51 AM 32.0 °F 22.5 °F 32.0 °F 100% 29.82 in 1.0 mi ESE 12.7 mph - N/A Snow Snow
6:11 AM 33.8 °F 25.3 °F 32.0 °F 93% 29.83 in 1.0 mi ESE 11.5 mph 17.3 mph N/A Snow Snow
6:31 AM 33.8 °F 25.8 °F 32.0 °F 93% 29.83 in 0.8 mi ESE 10.4 mph - N/A Snow Snow
6:51 AM 33.8 °F 25.8 °F 32.0 °F 93% 29.84 in 0.8 mi ESE 10.4 mph - N/A Snow Snow
7:11 AM 33.8 °F 25.3 °F 32.0 °F 93% 29.84 in 0.8 mi ESE 11.5 mph 16.1 mph N/A Snow Snow
7:31 AM 33.8 °F 25.8 °F 32.0 °F 93% 29.83 in 0.5 mi East 10.4 mph - N/A Snow Snow
7:51 AM 32.0 °F 22.5 °F 32.0 °F 100% 29.84 in 0.2 mi East 12.7 mph - N/A Snow Snow
8:11 AM 32.0 °F 23.0 °F 32.0 °F 100% 29.83 in 0.5 mi East 11.5 mph 16.1 mph N/A Snow Snow
8:31 AM 32.0 °F 23.0 °F 32.0 °F 100% 29.83 in 0.5 mi East 11.5 mph - N/A Snow Snow
8:50 AM 32.0 °F 23.6 °F 32.0 °F 100% 29.83 in 0.5 mi East 10.4 mph - N/A Snow Snow
9:31 AM 32.0 °F 24.2 °F 32.0 °F 100% 29.84 in 0.2 mi East 9.2 mph - N/A Snow Snow
9:51 AM 32.0 °F 24.8 °F 32.0 °F 100% 29.84 in 0.2 mi East 8.1 mph - N/A Snow Snow
10:11 AM 32.0 °F 23.6 °F 32.0 °F 100% 29.83 in 0.2 mi ENE 10.4 mph - N/A Snow Heavy Snow
10:31 AM 32.0 °F 23.0 °F 32.0 °F 100% 29.83 in 0.2 mi ENE 11.5 mph - N/A Snow Heavy Snow
10:50 AM 32.0 °F 22.1 °F 32.0 °F 100% 29.82 in 0.5 mi ENE 13.8 mph - N/A Snow Snow
11:11 AM 32.0 °F 21.6 °F 32.0 °F 100% 29.82 in 0.5 mi ENE 15.0 mph 18.4 mph N/A Snow Light Snow
11:31 AM 32.0 °F 21.6 °F 32.0 °F 100% 29.81 in 0.5 mi NE 15.0 mph - N/A Snow Light Snow
11:51 AM 32.0 °F 22.5 °F 32.0 °F 100% 29.80 in 0.5 mi NE 12.7 mph - N/A Snow Light Snow
12:11 PM 32.0 °F 22.5 °F 30.2 °F 93% 29.80 in 0.5 mi NE 12.7 mph - N/A Snow Light Snow
12:31 PM 32.0 °F 21.6 °F 30.2 °F 93% 29.79 in 0.5 mi NE 15.0 mph - N/A Snow Light Snow
12:51 PM 32.0 °F 22.1 °F 30.2 °F 93% 29.79 in 0.5 mi NNE 13.8 mph - N/A Snow Snow
1:11 PM 32.0 °F 21.2 °F 30.2 °F 93% 29.79 in 0.5 mi NNE 16.1 mph - N/A Snow Light Snow
1:30 PM 30.2 °F 17.4 °F 28.4 °F 93% 29.80 in 0.5 mi NNE 20.7 mph - N/A Snow Light Snow
1:51 PM 30.2 °F 17.4 °F 28.4 °F 93% 29.80 in 0.5 mi North 20.7 mph - N/A Snow Light Snow
2:11 PM 30.2 °F 17.1 °F 28.4 °F 93% 29.80 in - North 21.9 mph - N/A   Unknown
2:31 PM 30.2 °F 16.5 °F 28.4 °F 93% 29.80 in - North 24.2 mph 28.8 mph N/A   Unknown
2:51 PM 30.2 °F 17.1 °F 28.4 °F 93% 29.81 in - North 21.9 mph - N/A   Unknown
3:10 PM 30.2 °F 17.4 °F 28.4 °F 93% 29.83 in - North 20.7 mph 26.5 mph N/A   Unknown
3:31 PM 28.4 °F 16.6 °F 26.6 °F 93% 29.85 in - North 16.1 mph 25.3 mph N/A   Unknown
3:51 PM 26.6 °F 13.8 °F 23.0 °F 86% 29.86 in - North 17.3 mph 21.9 mph N/A   Unknown
4:11 PM 24.8 °F 11.1 °F 21.2 °F 86% 29.87 in - North 18.4 mph 25.3 mph N/A   Unknown
4:31 PM 23.0 °F 7.6 °F 21.2 °F 93% 29.89 in - NNW 21.9 mph - N/A   Unknown
4:50 PM 23.0 °F 7.6 °F 21.2 °F 93% 29.90 in - NNW 21.9 mph 28.8 mph N/A   Unknown
5:10 PM 23.0 °F 6.9 °F 19.4 °F 86% 29.91 in - NNW 24.2 mph 32.2 mph N/A   Unknown
5:31 PM 21.2 °F 4.5 °F 19.4 °F 93% 29.92 in - NNW 24.2 mph 27.6 mph N/A   Unknown
5:51 PM 21.2 °F 4.5 °F 19.4 °F 93% 29.93 in - NNW 24.2 mph 29.9 mph N/A   Unknown
6:11 PM 21.2 °F 4.9 °F 17.6 °F 86% 29.94 in - NNW 23.0 mph - N/A   Unknown
6:31 PM 21.2 °F 4.5 °F 17.6 °F 86% 29.94 in - NNW 24.2 mph - N/A   Unknown
6:51 PM 21.2 °F 4.5 °F 17.6 °F 86% 29.95 in - NNW 24.2 mph 28.8 mph N/A   Unknown
7:10 PM 21.2 °F 4.9 °F 17.6 °F 86% 29.96 in - NNW 23.0 mph 27.6 mph N/A   Unknown
7:31 PM 21.2 °F 4.9 °F 17.6 °F 86% 29.97 in - NNW 23.0 mph 29.9 mph N/A   Unknown
7:50 PM 21.2 °F 5.2 °F 17.6 °F 86% 29.97 in - NNW 21.9 mph - N/A   Unknown
8:11 PM 21.2 °F 4.9 °F 17.6 °F 86% 29.98 in - NNW 23.0 mph 27.6 mph N/A   Unknown
8:30 PM 17.6 °F 1.7 °F 14.0 °F 86% 29.99 in - NW 18.4 mph 24.2 mph N/A   Unknown
8:51 PM 12.2 °F -7.1 °F 8.6 °F 85% 29.99 in - NW 23.0 mph 27.6 mph N/A   Unknown
9:11 PM 10.4 °F -9.1 °F 6.8 °F 85% 29.99 in - NW 21.9 mph 27.6 mph N/A   Unknown
9:31 PM 8.6 °F -11.9 °F 5.0 °F 85% 30.00 in - NW 23.0 mph 31.1 mph N/A   Unknown
9:51 PM 8.6 °F -11.4 °F 3.2 °F 79% 30.00 in - NW 21.9 mph - N/A   Unknown
10:10 PM 8.6 °F -10.5 °F 3.2 °F 79% 30.00 in - NW 19.6 mph 27.6 mph N/A   Unknown
10:31 PM 6.8 °F -13.8 °F 3.2 °F 85% 30.01 in - NW 21.9 mph 28.8 mph N/A   Unknown
10:51 PM 6.8 °F -12.4 °F 1.4 °F 79% 30.01 in - NW 18.4 mph 24.2 mph N/A   Clear
11:10 PM 5.0 °F -15.2 °F 1.4 °F 85% 30.01 in - NW 19.6 mph 25.3 mph N/A   Unknown
11:31 PM 5.0 °F -15.7 °F 1.4 °F 85% 30.01 in - NW 20.7 mph 25.3 mph N/A   Clear
11:51 PM 5.0 °F -14.7 °F 1.4 °F 85% 30.01 in - NW 18.4 mph 24.2 mph N/A   Unknown